Time;durP1;ratioP1;P1;durP2;ratioP2;P2;SDS_P1;SDS_P2;PMS_P1;PMS_P2;Temp;Humidity;BMP_temperature;BMP_pressure;BME280_temperature;BME280_humidity;BME280_pressure;Samples;Min_cycle;Max_cycle;Signal;HPM_P1;HPM_P2
2023/04/12 00:00:12;;;;;;;19.30;8.20;;;8.60;99.90;;;;;;5074255;28;20206;-83
2023/04/12 00:02:38;;;;;;;19.87;9.27;;;8.40;99.90;;;;;;5040857;28;20187;-87
2023/04/12 00:05:07;;;;;;;19.77;8.43;;;8.50;99.90;;;;;;5074991;28;20179;-88
2023/04/12 00:07:34;;;;;;;16.03;7.63;;;;;;;;;;5056124;28;20233;-88
2023/04/12 00:10:03;;;;;;;11.37;6.17;;;8.40;99.90;;;;;;5057225;28;20553;-88
2023/04/12 00:12:29;;;;;;;15.80;7.30;;;;;;;;;;5059295;28;20228;-88
2023/04/12 00:14:56;;;;;;;13.67;7.37;;;;;;;;;;5040993;28;20183;-89
2023/04/12 00:17:21;;;;;;;16.33;6.53;;;8.50;99.90;;;;;;5057227;28;20179;-89
2023/04/12 00:19:51;;;;;;;15.93;7.23;;;8.30;99.90;;;;;;5056377;28;20202;-88
2023/04/12 00:22:17;;;;;;;16.50;8.00;;;;;;;;;;5051637;28;20179;-88
2023/04/12 00:24:46;;;;;;;17.13;8.63;;;8.30;99.90;;;;;;5056751;28;20222;-88
2023/04/12 00:27:17;;;;;;;12.30;6.77;;;8.30;99.90;;;;;;5074612;28;20199;-91
2023/04/12 00:29:46;;;;;;;11.90;6.83;;;;;;;;;;5056268;28;20183;-90
2023/04/12 00:32:12;;;;;;;12.47;7.20;;;;;;;;;;5056244;28;20554;-90
2023/04/12 00:34:42;;;;;;;16.33;7.53;;;8.20;99.90;;;;;;5056376;28;20270;-90
2023/04/12 00:37:11;;;;;;;16.33;8.83;;;8.10;99.90;;;;;;5056732;28;20240;-91
2023/04/12 00:39:37;;;;;;;9.93;6.90;;;;;;;;;;5055271;28;20558;-90
2023/04/12 00:42:04;;;;;;;13.53;7.43;;;;;;;;;;5056612;28;20248;-89
2023/04/12 00:44:31;;;;;;;16.30;7.60;;;8.00;99.90;;;;;;5056422;28;20183;-90
2023/04/12 00:46:58;;;;;;;16.30;9.00;;;;;;;;;;5039961;28;20627;-90
2023/04/12 00:49:28;;;;;;;19.00;7.87;;;;;;;;;;5056526;28;20183;-89
2023/04/12 00:51:54;;;;;;;14.93;7.90;;;;;;;;;;5041748;28;20629;-89
2023/04/12 00:54:21;;;;;;;15.37;7.40;;;;;;;;;;5056197;28;20183;-90
2023/04/12 00:56:47;;;;;;;16.77;7.60;;;7.90;99.90;;;;;;5075079;28;20202;-89
2023/04/12 00:59:14;;;;;;;18.67;8.80;;;;;;;;;;5074250;28;20306;-89
2023/04/12 01:01:40;;;;;;;14.67;9.13;;;;;;;;;;5056334;28;20666;-89
2023/04/12 01:04:14;;;;;;;21.67;8.80;;;;;;;;;;5055711;28;20179;-90
2023/04/12 01:07:24;;;;;;;16.90;7.17;;;7.80;99.90;;;;;;5055413;28;20205;-88
2023/04/12 01:10:08;;;;;;;17.53;7.20;;;8.00;99.90;;;;;;5053805;28;20675;-85
2023/04/12 01:12:46;;;;;;;16.23;8.23;;;7.80;99.90;;;;;;5067046;28;20205;-85
2023/04/12 01:15:15;;;;;;;14.17;6.73;;;7.70;99.90;;;;;;5063202;28;20175;-89
2023/04/12 01:17:56;;;;;;;11.73;7.20;;;7.70;99.90;;;;;;5055691;28;20211;-89
2023/04/12 01:20:27;;;;;;;16.37;8.43;;;7.60;99.90;;;;;;5055849;28;20284;-90
2023/04/12 01:23:12;;;;;;;14.13;7.63;;;7.60;99.90;;;;;;5055468;28;20188;-90
2023/04/12 01:25:47;;;;;;;21.17;8.77;;;7.50;99.90;;;;;;5055218;28;20175;-89
2023/04/12 01:28:22;;;;;;;18.93;8.10;;;7.50;99.90;;;;;;5055804;28;20628;-90
2023/04/12 01:30:51;;;;;;;24.23;8.37;;;7.50;99.90;;;;;;5055279;28;20230;-89
2023/04/12 01:33:17;;;;;;;17.47;9.07;;;;;;;;;;5055659;28;20187;-89
2023/04/12 01:35:44;;;;;;;15.87;9.30;;;7.40;99.90;;;;;;5055755;28;20183;-90
2023/04/12 01:38:10;;;;;;;12.20;7.63;;;;;;;;;;5040043;28;20190;-89
2023/04/12 01:40:39;;;;;;;21.13;7.50;;;;;;;;;;5055975;28;20207;-89
2023/04/12 01:43:08;;;;;;;19.23;8.47;;;7.30;99.90;;;;;;5056803;28;20194;-89
2023/04/12 01:45:34;;;;;;;16.37;8.67;;;;;;;;;;5057222;28;20179;-90
2023/04/12 01:48:11;;;;;;;19.53;8.57;;;7.20;99.90;;;;;;5055819;28;20185;-89
2023/04/12 01:50:57;;;;;;;25.87;9.20;;;7.20;99.90;;;;;;5057945;28;20181;-90
2023/04/12 01:53:36;;;;;;;18.63;8.43;;;7.10;99.90;;;;;;5079148;28;20174;-89
2023/04/12 01:56:06;;;;;;;18.40;8.23;;;;;;;;;;5084895;28;20183;-88
2023/04/12 01:58:35;;;;;;;19.60;8.77;;;;;;;;;;5084360;28;20193;-88
2023/04/12 02:01:06;;;;;;;15.30;7.67;;;7.00;99.90;;;;;;5084408;28;20174;-88
2023/04/12 02:03:32;;;;;;;17.70;8.57;;;;;;;;;;5084424;28;20230;-88
2023/04/12 02:05:59;;;;;;;26.37;8.93;;;;;;;;;;5084232;28;20192;-89
2023/04/12 02:08:25;;;;;;;17.07;7.53;;;;;;;;;;5101614;28;20213;-89
2023/04/12 02:10:54;;;;;;;18.73;9.53;;;;;;;;;;5084245;28;20235;-90
2023/04/12 02:13:20;;;;;;;14.83;7.83;;;;;;;;;;5067955;28;20175;-89
2023/04/12 02:15:49;;;;;;;14.27;9.03;;;;;;;;;;5084381;28;20168;-89
2023/04/12 02:18:24;;;;;;;15.90;7.63;;;;;;;;;;5083938;28;20168;-89
2023/04/12 02:20:50;;;;;;;22.53;7.97;;;;;;;;;;5083441;28;20187;-90
2023/04/12 02:23:16;;;;;;;14.67;7.03;;;;;;;;;;5081311;28;20199;-89
2023/04/12 02:25:45;;;;;;;14.17;6.30;;;;;;;;;;5060718;28;20179;-89
2023/04/12 02:28:12;;;;;;;11.47;6.83;;;;;;;;;;5059524;28;20179;-89
2023/04/12 02:30:40;;;;;;;11.20;5.97;;;;;;;;;;5059682;28;20231;-89
2023/04/12 02:33:08;;;;;;;11.80;7.23;;;;;;;;;;5077327;28;20175;-90
2023/04/12 02:35:37;;;;;;;11.83;5.67;;;;;;;;;;5077863;28;20176;-89
2023/04/12 02:38:07;;;;;;;10.80;6.10;;;;;;;;;;5059125;28;20179;-88
2023/04/12 02:40:42;;;;;;;10.97;6.80;;;;;;;;;;5060009;28;20202;-88
2023/04/12 02:43:08;;;;;;;16.63;7.47;;;;;;;;;;5076985;28;20254;-89
2023/04/12 02:45:35;;;;;;;11.43;6.67;;;;;;;;;;5077958;28;20229;-89
2023/04/12 02:48:01;;;;;;;24.87;7.80;;;;;;;;;;5058466;28;20171;-88
2023/04/12 02:50:28;;;;;;;10.23;5.90;;;;;;;;;;5058861;28;20179;-89
2023/04/12 02:52:54;;;;;;;14.37;7.00;;;;;;;;;;5058427;28;20218;-88
2023/04/12 02:55:20;;;;;;;13.93;6.43;;;;;;;;;;5058054;28;20183;-89
2023/04/12 02:57:47;;;;;;;10.07;6.47;;;;;;;;;;5057548;28;20175;-88
2023/04/12 03:00:17;;;;;;;10.63;6.27;;;;;;;;;;5057811;28;20545;-88
2023/04/12 03:02:43;;;;;;;17.53;7.70;;;;;;;;;;5057072;28;20202;-89
2023/04/12 03:05:11;;;;;;;13.83;7.10;;;;;;;;;;5057807;28;20175;-89
2023/04/12 03:07:37;;;;;;;11.27;7.90;;;;;;;;;;5057822;28;20559;-90
2023/04/12 03:10:06;;;;;;;13.33;7.43;;;;;;;;;;5057543;28;20179;-89
2023/04/12 03:12:33;;;;;;;12.30;7.13;;;;;;;;;;5057658;28;20724;-89
2023/04/12 03:14:59;;;;;;;14.83;7.90;;;;;;;;;;5075761;28;20262;-89
2023/04/12 03:17:26;;;;;;;11.27;6.60;;;;;;;;;;5057715;28;20183;-89
2023/04/12 03:19:52;;;;;;;12.37;7.27;;;;;;;;;;5056792;28;20199;-88
2023/04/12 03:22:18;;;;;;;10.57;6.17;;;;;;;;;;5057497;28;20183;-89
2023/04/12 03:24:45;;;;;;;12.77;6.63;;;;;;;;;;5057780;28;20709;-89
2023/04/12 03:27:11;;;;;;;13.30;7.43;;;;;;;;;;5041164;28;20179;-89
2023/04/12 03:29:37;;;;;;;10.57;6.33;;;;;;;;;;5076450;28;20172;-89
2023/04/12 03:32:03;;;;;;;17.50;8.43;;;;;;;;;;5056753;28;20235;-90
2023/04/12 03:34:31;;;;;;;15.00;7.23;;;;;;;;;;5057851;28;20183;-90
2023/04/12 03:36:57;;;;;;;16.17;8.40;;;;;;;;;;5057622;28;20180;-90
2023/04/12 03:39:23;;;;;;;17.27;7.50;;;;;;;;;;5057161;28;20203;-89
2023/04/12 03:41:50;;;;;;;20.77;8.40;;;;;;;;;;5060669;28;20247;-89
2023/04/12 03:44:16;;;;;;;17.07;8.40;;;;;;;;;;5064288;28;20186;-89
2023/04/12 03:46:42;;;;;;;18.10;8.43;;;;;;;;;;5064545;28;20274;-88
2023/04/12 03:49:11;;;;;;;20.70;9.23;;;7.10;99.90;;;;;;5064648;28;20206;-89
2023/04/12 03:51:41;;;;;;;24.30;8.47;;;;;;;;;;5069746;28;20598;-89
2023/04/12 03:54:14;;;;;;;21.93;10.90;;;6.90;99.90;;;;;;5088200;28;20155;-89
2023/04/12 03:56:40;;;;;;;28.47;12.20;;;;;;;;;;5059891;28;20224;-90
2023/04/12 03:59:06;;;;;;;31.33;15.00;;;;;;;;;;5056912;28;20573;-90
2023/04/12 04:01:33;;;;;;;33.13;14.87;;;;;;;;;;5040437;28;20198;-90
2023/04/12 04:03:59;;;;;;;24.03;10.60;;;;;;;;;;5057582;28;20186;-90
2023/04/12 04:06:25;;;;;;;24.63;10.67;;;;;;;;;;5056009;28;20179;-90
2023/04/12 04:08:51;;;;;;;24.57;10.30;;;;;;;;;;5056635;28;20178;-91
2023/04/12 04:11:25;;;;;;;22.57;9.97;;;6.70;99.90;;;;;;5056566;28;20186;-91
2023/04/12 04:13:51;;;;;;;18.50;10.20;;;;;;;;;;5057806;28;20182;-89
2023/04/12 04:16:18;;;;;;;23.63;10.67;;;;;;;;;;5061195;28;20179;-89
2023/04/12 04:18:44;;;;;;;26.27;9.90;;;;;;;;;;5082015;28;20193;-89
2023/04/12 04:21:10;;;;;;;20.57;10.30;;;;;;;;;;5061637;28;20651;-90
2023/04/12 04:23:43;;;;;;;19.37;9.57;;;;;;;;;;5061606;28;20179;-89
2023/04/12 04:26:10;;;;;;;16.40;8.33;;;6.60;99.90;;;;;;5062167;28;20270;-89
2023/04/12 04:28:46;;;;;;;14.87;7.57;;;6.50;99.90;;;;;;5058120;28;20266;-90
2023/04/12 04:31:12;;;;;;;15.10;7.80;;;;;;;;;;5072636;28;20237;-89
2023/04/12 04:33:39;;;;;;;31.93;9.60;;;6.40;99.90;;;;;;5077468;28;20179;-90
2023/04/12 04:36:08;;;;;;;31.23;9.83;;;6.40;99.90;;;;;;5085185;28;20262;-89
2023/04/12 04:38:34;;;;;;;21.67;8.97;;;;;;;;;;5085499;28;20185;-89
2023/04/12 04:41:05;;;;;;;16.63;8.33;;;6.40;99.90;;;;;;5085269;28;20273;-90
2023/04/12 04:43:32;;;;;;;22.20;9.80;;;;;;;;;;5081060;28;20296;-90
2023/04/12 04:45:59;;;;;;;15.10;7.60;;;;;;;;;;5077626;28;20179;-90
2023/04/12 04:48:25;;;;;;;21.30;9.03;;;;;;;;;;5075937;28;20185;-91
2023/04/12 04:50:52;;;;;;;21.67;10.10;;;;;;;;;;5076305;28;20218;-90
2023/04/12 04:53:19;;;;;;;17.37;10.10;;;6.40;99.90;;;;;;5075761;28;20186;-91
2023/04/12 04:55:46;;;;;;;15.83;8.50;;;;;;;;;;5076767;28;20250;-90
2023/04/12 04:58:12;;;;;;;20.10;10.03;;;;;;;;;;5076419;28;20631;-91
2023/04/12 05:00:38;;;;;;;16.33;8.33;;;;;;;;;;5076053;28;20293;-91
2023/04/12 05:03:05;;;;;;;12.03;6.40;;;;;;;;;;5076540;28;20259;-90
2023/04/12 05:05:31;;;;;;;17.40;8.40;;;;;;;;;;5075564;28;20178;-91
2023/04/12 05:08:02;;;;;;;15.17;7.77;;;6.70;99.90;;;;;;5075557;28;20187;-91
2023/04/12 05:10:28;;;;;;;17.83;8.47;;;;;;;;;;5075863;28;20285;-90
2023/04/12 05:12:57;;;;;;;18.50;8.90;;;6.80;99.90;;;;;;5094005;28;20563;-90
2023/04/12 05:15:25;;;;;;;19.70;7.83;;;;;;;;;;5075879;28;20175;-91
2023/04/12 05:17:51;;;;;;;23.50;9.70;;;;;;;;;;5076735;28;20227;-90
2023/04/12 05:20:17;;;;;;;23.10;9.00;;;;;;;;;;5076916;28;20205;-90
2023/04/12 05:22:44;;;;;;;20.43;8.90;;;;;;;;;;5059728;28;20708;-89
2023/04/12 05:25:12;;;;;;;15.83;7.87;;;7.10;99.90;;;;;;5063448;28;20198;-90
2023/04/12 05:27:48;;;;;;;23.77;10.97;;;7.00;99.90;;;;;;5058267;28;20224;-90
2023/04/12 05:30:17;;;;;;;17.00;8.90;;;9.50;99.90;;;;;;5061530;28;20225;-89
2023/04/12 05:32:45;;;;;;;18.97;9.93;;;7.20;99.90;;;;;;5041196;28;20209;-89
2023/04/12 05:35:11;;;;;;;18.70;9.03;;;;;;;;;;5058609;28;20199;-89
2023/04/12 05:37:37;;;;;;;17.73;9.00;;;;;;;;;;5071773;28;20190;-89
2023/04/12 05:40:06;;;;;;;19.20;9.47;;;7.20;99.90;;;;;;5054849;28;20284;-90
2023/04/12 05:42:31;;;;;;;14.40;8.43;;;7.20;99.90;;;;;;5083755;28;20191;-88
2023/04/12 05:44:57;;;;;;;23.07;9.97;;;;;;;;;;5055340;28;20666;-87
2023/04/12 05:47:23;;;;;;;18.40;10.60;;;;;;;;;;5050751;28;20190;-88
2023/04/12 05:49:49;;;;;;;19.47;11.17;;;;;;;;;;5058773;28;20692;-88
2023/04/12 05:52:16;;;;;;;14.93;9.40;;;;;;;;;;5061750;28;20286;-88
2023/04/12 05:54:42;;;;;;;21.77;9.93;;;;;;;;;;5058209;28;20406;-90
2023/04/12 05:57:08;;;;;;;22.10;10.50;;;;;;;;;;5072442;28;20191;-89
2023/04/12 05:59:33;;;;;;;18.90;11.23;;;7.50;99.90;;;;;;5054447;28;20221;-89
2023/04/12 06:02:00;;;;;;;20.07;10.30;;;;;;;;;;5071810;28;20197;-88
2023/04/12 06:04:26;;;;;;;17.80;8.30;;;;;;;;;;5052589;28;20187;-88
2023/04/12 06:06:51;;;;;;;20.03;10.53;;;7.60;99.90;;;;;;5067537;28;20182;-87
2023/04/12 06:09:20;;;;;;;25.60;12.27;;;7.70;99.90;;;;;;5048331;28;20199;-88
2023/04/12 06:11:46;;;;;;;22.77;10.67;;;7.80;99.90;;;;;;5073231;28;20186;-89
2023/04/12 06:14:12;;;;;;;21.97;11.13;;;8.30;99.90;;;;;;5062218;28;20281;-87
2023/04/12 06:16:38;;;;;;;24.50;10.30;;;;;;;;;;5056940;28;20187;-88
2023/04/12 06:19:04;;;;;;;18.83;8.83;;;8.00;99.90;;;;;;5066556;28;20557;-88
2023/04/12 06:21:30;;;;;;;16.87;9.83;;;5.90;99.90;;;;;;5066662;28;20810;-88
2023/04/12 06:23:56;;;;;;;22.27;11.30;;;;;;;;;;5057176;28;20198;-88
2023/04/12 06:26:23;;;;;;;25.40;10.80;;;8.20;99.90;;;;;;5073373;28;20182;-88
2023/04/12 06:28:49;;;;;;;17.97;9.90;;;8.20;99.90;;;;;;5053158;28;20183;-88
2023/04/12 06:31:16;;;;;;;24.47;11.87;;;8.20;99.90;;;;;;5036700;28;20226;-87
2023/04/12 06:33:43;;;;;;;23.43;11.37;;;8.30;99.90;;;;;;5052139;28;20188;-88
2023/04/12 06:36:11;;;;;;;22.13;11.03;;;;;;;;;;5067451;28;20215;-89
2023/04/12 06:38:37;;;;;;;21.30;10.83;;;8.50;99.90;;;;;;5085353;28;20183;-88
2023/04/12 06:41:03;;;;;;;26.83;13.93;;;8.70;99.90;;;;;;5095619;28;20182;-89
2023/04/12 06:43:29;;;;;;;22.27;11.40;;;;;;;;;;5062220;28;20183;-86
2023/04/12 06:45:55;;;;;;;22.33;10.73;;;8.70;99.90;;;;;;5077119;28;20194;-87
2023/04/12 06:48:21;;;;;;;26.93;11.87;;;;;;;;;;5072446;28;20689;-85
2023/04/12 06:50:47;;;;;;;21.47;11.07;;;8.80;99.90;;;;;;5070977;28;20221;-87
2023/04/12 06:53:13;;;;;;;23.60;10.17;;;8.80;99.90;;;;;;5048292;28;20187;-88
2023/04/12 06:55:45;;;;;;;24.90;12.63;;;9.40;99.90;;;;;;5060377;28;20179;-88
2023/04/12 06:58:13;;;;;;;26.70;10.67;;;9.10;99.90;;;;;;5063315;28;20187;-85
2023/04/12 07:00:39;;;;;;;23.23;11.03;;;9.10;99.90;;;;;;5086575;28;20198;-88
2023/04/12 07:03:04;;;;;;;25.67;12.45;;;9.20;99.90;;;;;;5106465;28;20210;-89
2023/04/12 07:05:31;;;;;;;30.23;12.38;;;;;;;;;;5060641;28;20182;-88
2023/04/12 07:07:56;;;;;;;32.15;12.30;;;9.70;99.90;;;;;;5078000;28;20195;-89
2023/04/12 07:10:24;;;;;;;31.77;13.38;;;10.00;99.90;;;;;;5068719;28;20555;-88
2023/04/12 07:12:50;;;;;;;24.98;13.27;;;10.00;99.90;;;;;;5080101;28;20202;-88
2023/04/12 07:15:19;;;;;;;24.05;12.25;;;10.40;99.90;;;;;;5058277;28;20550;-88
2023/04/12 07:17:45;;;;;;;27.80;14.23;;;10.20;99.90;;;;;;5058790;28;20191;-87
2023/04/12 07:20:11;;;;;;;24.52;11.85;;;10.10;99.90;;;;;;5064711;28;20219;-88
2023/04/12 07:22:37;;;;;;;26.40;12.65;;;10.20;99.90;;;;;;5078079;28;20197;-90
2023/04/12 07:25:05;;;;;;;26.55;12.23;;;;;;;;;;5062151;28;20210;-90
2023/04/12 07:27:31;;;;;;;23.77;12.65;;;10.40;99.90;;;;;;5057629;28;20201;-90
2023/04/12 07:29:57;;;;;;;28.02;12.85;;;10.40;99.90;;;;;;5061719;28;20644;-89
2023/04/12 07:32:23;;;;;;;22.77;11.57;;;10.80;99.90;;;;;;5089787;28;20178;-90
2023/04/12 07:34:48;;;;;;;23.58;11.23;;;10.40;99.90;;;;;;5041424;28;20171;-89
2023/04/12 07:37:16;;;;;;;27.63;13.40;;;;;;;;;;5046552;28;20179;-91
2023/04/12 07:39:42;;;;;;;27.70;12.43;;;10.20;99.90;;;;;;5077755;28;20270;-90
2023/04/12 07:42:13;;;;;;;28.63;13.85;;;10.30;99.90;;;;;;5045296;28;20191;-90
2023/04/12 07:44:41;;;;;;;34.40;12.85;;;10.20;99.90;;;;;;5052584;28;20167;-93
2023/04/12 07:47:09;;;;;;;26.65;13.05;;;10.70;99.90;;;;;;5082321;28;20187;-87
2023/04/12 07:49:35;;;;;;;23.85;12.35;;;10.50;99.90;;;;;;5067238;27;20182;-88
2023/04/12 07:52:01;;;;;;;24.05;12.73;;;10.60;99.90;;;;;;5121839;27;20195;-87
2023/04/12 07:54:28;;;;;;;27.10;13.20;;;10.70;99.90;;;;;;5085586;28;20166;-86
2023/04/12 07:57:01;;;;;;;26.50;12.75;;;10.80;99.90;;;;;;5114477;28;20167;-90
2023/04/12 07:59:27;;;;;;;24.55;13.57;;;10.90;99.90;;;;;;5089440;28;20211;-89
2023/04/12 08:01:52;;;;;;;26.95;13.93;;;10.90;99.90;;;;;;5107668;28;20231;-89
2023/04/12 08:04:19;;;;;;;27.88;12.90;;;;;;;;;;5066595;28;20179;-89
2023/04/12 08:06:45;;;;;;;26.08;13.20;;;10.90;99.90;;;;;;5084816;28;20199;-90
2023/04/12 08:09:10;;;;;;;31.50;15.57;;;10.90;99.90;;;;;;5080612;28;20182;-91
2023/04/12 08:11:37;;;;;;;29.45;13.35;;;11.00;99.90;;;;;;5070999;28;20259;-91
2023/04/12 08:14:04;;;;;;;21.60;13.73;;;10.80;99.90;;;;;;5070852;27;20247;-89
2023/04/12 08:16:32;;;;;;;25.17;12.75;;;11.30;99.90;;;;;;5070643;28;20177;-89
2023/04/12 08:18:58;;;;;;;25.35;12.40;;;11.60;99.90;;;;;;5085891;28;20217;-90
2023/04/12 08:21:24;;;;;;;24.95;11.73;;;;;;;;;;5077833;28;20178;-89
2023/04/12 08:23:49;;;;;;;29.60;12.85;;;11.20;99.90;;;;;;5067257;28;20179;-89
2023/04/12 08:26:15;;;;;;;25.67;12.02;;;11.50;99.90;;;;;;5042714;28;20199;-89
2023/04/12 08:28:41;;;;;;;23.80;10.77;;;11.50;99.90;;;;;;5079432;28;20182;-87
2023/04/12 08:31:07;;;;;;;25.88;12.02;;;11.50;99.90;;;;;;5092591;28;20272;-89
2023/04/12 08:33:36;;;;;;;28.58;11.90;;;11.40;99.90;;;;;;5056499;28;20183;-89
2023/04/12 08:36:01;;;;;;;26.05;11.43;;;9.70;99.90;;;;;;5078651;28;20272;-85
2023/04/12 08:38:27;;;;;;;25.73;11.35;;;;;;;;;;5069223;28;20210;-88
2023/04/12 08:40:53;;;;;;;34.30;13.32;;;10.90;99.90;;;;;;5049710;28;20211;-89
2023/04/12 08:43:21;;;;;;;32.20;12.75;;;11.00;99.90;;;;;;5071513;28;20185;-87
2023/04/12 08:45:56;;;;;;;23.48;12.60;;;10.90;99.90;;;;;;5074836;28;20182;-87
2023/04/12 08:48:25;;;;;;;25.70;13.65;;;11.10;99.90;;;;;;5047064;28;20247;-89
2023/04/12 08:50:56;;;;;;;26.15;12.45;;;10.80;99.90;;;;;;5057493;28;20187;-89
2023/04/12 08:53:22;;;;;;;29.95;14.50;;;10.00;99.90;;;;;;5083745;28;20281;-91
2023/04/12 08:55:49;;;;;;;30.35;14.32;;;11.00;99.90;;;;;;5047263;28;20194;-89
2023/04/12 08:58:17;;;;;;;33.83;13.70;;;10.70;99.90;;;;;;5040658;28;20180;-90
2023/04/12 09:00:45;;;;;;;26.02;12.75;;;10.50;99.90;;;;;;5072856;28;20221;-88
2023/04/12 09:03:10;;;;;;;31.48;14.73;;;10.50;99.90;;;;;;5093934;28;20184;-89
2023/04/12 09:05:36;;;;;;;26.77;14.10;;;10.50;99.90;;;;;;5071882;28;20540;-89
2023/04/12 09:08:03;;;;;;;27.98;12.52;;;10.50;99.90;;;;;;5037624;28;20191;-89
2023/04/12 09:10:35;;;;;;;32.28;13.55;;;10.50;99.90;;;;;;5071745;28;20179;-90
2023/04/12 09:13:01;;;;;;;26.55;12.88;;;10.90;99.90;;;;;;5062575;28;20269;-86
2023/04/12 09:15:26;;;;;;;33.33;13.68;;;10.70;99.90;;;;;;5082737;28;20341;-86
2023/04/12 09:18:03;;;;;;;29.20;12.68;;;10.90;99.90;;;;;;5058397;28;20180;-89
2023/04/12 09:20:29;;;;;;;32.13;12.07;;;10.90;99.90;;;;;;5070398;28;20197;-89
2023/04/12 09:22:55;;;;;;;27.20;12.25;;;11.10;99.90;;;;;;5025989;28;20202;-89
2023/04/12 09:25:44;;;;;;;32.63;13.98;;;11.50;99.90;;;;;;5056480;28;20191;-89
2023/04/12 09:28:19;;;;;;;21.45;12.30;;;11.90;99.90;;;;;;5072935;28;20194;-86
2023/04/12 09:30:50;;;;;;;28.13;13.25;;;12.20;99.90;;;;;;5059563;28;20230;-86
2023/04/12 09:33:16;;;;;;;25.92;11.63;;;12.20;99.90;;;;;;5071329;28;20639;-91
2023/04/12 09:35:48;;;;;;;22.60;12.35;;;12.30;99.90;;;;;;5089100;28;20170;-93
2023/04/12 09:38:14;;;;;;;29.98;13.48;;;12.50;99.90;;;;;;5083002;28;20243;-92
2023/04/12 09:40:40;;;;;;;31.10;13.82;;;12.70;99.90;;;;;;5083863;28;20210;-91
2023/04/12 09:43:07;;;;;;;29.55;15.15;;;13.20;99.90;;;;;;5110432;28;20193;-90
2023/04/12 09:45:37;;;;;;;27.48;12.98;;;12.90;99.90;;;;;;5064953;28;20645;-89
2023/04/12 09:48:05;;;;;;;24.83;13.20;;;12.80;99.90;;;;;;5095388;28;20179;-90
2023/04/12 09:50:34;;;;;;;28.13;14.20;;;12.80;99.90;;;;;;5050616;28;20701;-90
2023/04/12 09:53:02;;;;;;;27.77;13.88;;;12.80;99.90;;;;;;5070892;28;20174;-89
2023/04/12 09:55:30;;;;;;;29.25;15.43;;;13.00;99.90;;;;;;5062792;28;20311;-90
2023/04/12 09:58:04;;;;;;;26.02;13.25;;;12.90;99.90;;;;;;5081648;28;20259;-90
2023/04/12 10:00:32;;;;;;;34.67;14.85;;;12.70;99.90;;;;;;5076516;28;20728;-90
2023/04/12 10:02:58;;;;;;;31.38;14.73;;;13.10;99.90;;;;;;5088461;28;20261;-91
2023/04/12 10:05:24;;;;;;;26.98;13.15;;;12.90;99.90;;;;;;5075495;28;20265;-90
2023/04/12 10:07:51;;;;;;;31.45;14.27;;;13.20;99.90;;;;;;5087147;28;20183;-91
2023/04/12 10:10:18;;;;;;;26.65;12.63;;;13.10;99.90;;;;;;5065430;28;20187;-88
2023/04/12 10:12:45;;;;;;;24.52;13.25;;;13.20;99.90;;;;;;5060304;28;20552;-91
2023/04/12 10:15:12;;;;;;;24.70;13.23;;;13.20;99.90;;;;;;5071053;28;20186;-87
2023/04/12 10:17:52;;;;;;;29.20;13.93;;;13.30;99.90;;;;;;5078101;28;20216;-90
2023/04/12 10:20:20;;;;;;;26.38;13.10;;;13.40;99.90;;;;;;5071114;28;20202;-91
2023/04/12 10:22:51;;;;;;;28.83;12.90;;;13.70;99.90;;;;;;5061398;28;20247;-91
2023/04/12 10:25:19;;;;;;;24.10;11.15;;;13.90;99.90;;;;;;5060234;28;20421;-91
2023/04/12 10:27:46;;;;;;;27.02;14.75;;;13.70;99.90;;;;;;5060120;28;20547;-90
2023/04/12 10:30:30;;;;;;;29.70;13.15;;;12.60;99.90;;;;;;5083367;28;20230;-89
2023/04/12 10:33:02;;;;;;;26.95;12.32;;;13.70;99.90;;;;;;5061525;28;20592;-92
2023/04/12 10:35:29;;;;;;;25.35;13.05;;;13.90;99.90;;;;;;5070549;28;20190;-92
2023/04/12 10:38:03;;;;;;;22.58;12.48;;;14.20;99.90;;;;;;5109567;28;20179;-92
2023/04/12 10:40:30;;;;;;;24.48;12.73;;;14.10;99.90;;;;;;5070704;28;20199;-91
2023/04/12 10:43:21;;;;;;;24.08;12.32;;;14.30;99.90;;;;;;5074522;28;20248;-89
2023/04/12 10:45:48;;;;;;;24.50;12.65;;;14.30;99.90;;;;;;5073585;28;20175;-90
2023/04/12 10:48:30;;;;;;;25.50;12.25;;;14.60;99.90;;;;;;5076906;28;20171;-91
2023/04/12 10:51:20;;;;;;;24.50;10.93;;;13.90;99.90;;;;;;5063005;28;20190;-89
2023/04/12 10:53:46;;;;;;;22.08;10.93;;;14.90;99.90;;;;;;5075060;28;20170;-89
2023/04/12 10:56:32;;;;;;;22.38;11.55;;;14.90;99.90;;;;;;5070130;28;20175;-89
2023/04/12 10:59:07;;;;;;;21.67;11.02;;;14.90;99.90;;;;;;5022542;28;20201;-90
2023/04/12 11:01:33;;;;;;;23.88;12.35;;;15.00;99.90;;;;;;5068930;28;20191;-90
2023/04/12 11:04:13;;;;;;;23.83;12.55;;;14.90;99.90;;;;;;5101133;28;20190;-90
2023/04/12 11:07:02;;;;;;;18.27;10.25;;;15.00;99.90;;;;;;5068636;28;20649;-89
2023/04/12 11:09:57;;;;;;;25.33;11.95;;;14.90;99.90;;;;;;5090582;28;20170;-91
2023/04/12 11:12:27;;;;;;;18.98;10.90;;;14.90;99.90;;;;;;5082130;28;20178;-91
2023/04/12 11:15:02;;;;;;;21.45;11.45;;;15.20;99.90;;;;;;5093921;28;20264;-91
2023/04/12 11:17:29;;;;;;;23.08;10.90;;;14.70;99.90;;;;;;5087739;28;20170;-91
2023/04/12 11:20:00;;;;;;;20.67;11.00;;;14.80;99.90;;;;;;5084609;28;20198;-91
2023/04/12 11:22:30;;;;;;;21.10;11.02;;;14.60;99.90;;;;;;5063234;28;20175;-90
2023/04/12 11:25:03;;;;;;;20.80;11.02;;;14.60;99.90;;;;;;5076276;28;20229;-90
2023/04/12 11:27:31;;;;;;;20.92;10.00;;;14.40;99.90;;;;;;5062844;28;20192;-90
2023/04/12 11:29:58;;;;;;;21.30;10.60;;;14.30;99.90;;;;;;5054038;28;20627;-91
2023/04/12 11:32:29;;;;;;;17.67;10.40;;;14.30;99.90;;;;;;5067473;28;20648;-91
2023/04/12 11:34:56;;;;;;;17.38;9.80;;;14.30;99.90;;;;;;5078191;28;20178;-91
2023/04/12 11:37:25;;;;;;;22.25;10.35;;;14.10;99.90;;;;;;5095534;28;20170;-90
2023/04/12 11:39:54;;;;;;;20.60;10.02;;;14.40;99.90;;;;;;5077828;28;20300;-90
2023/04/12 11:42:24;;;;;;;18.85;10.07;;;12.50;99.90;;;;;;5056481;28;20585;-90
2023/04/12 11:44:52;;;;;;;19.67;10.43;;;14.70;99.90;;;;;;5068607;28;20247;-90
2023/04/12 11:47:22;;;;;;;22.80;10.23;;;15.10;99.90;;;;;;5062276;28;20229;-90
2023/04/12 11:49:51;;;;;;;25.65;11.18;;;14.60;99.90;;;;;;5049672;28;20194;-91
2023/04/12 11:52:18;;;;;;;21.50;10.23;;;14.60;99.90;;;;;;5065762;28;20187;-89
2023/04/12 11:54:48;;;;;;;18.80;9.73;;;14.60;99.90;;;;;;5056368;28;20202;-91
2023/04/12 11:57:16;;;;;;;19.45;9.80;;;14.70;99.90;;;;;;5064153;28;20194;-90
2023/04/12 11:59:44;;;;;;;18.85;10.38;;;14.70;99.90;;;;;;5065853;28;20238;-90
2023/04/12 12:02:11;;;;;;;20.38;9.75;;;14.50;99.90;;;;;;5073823;28;20258;-90
2023/04/12 12:04:38;;;;;;;17.10;9.13;;;14.70;99.90;;;;;;5077395;28;20715;-90
2023/04/12 12:07:05;;;;;;;20.98;9.77;;;14.30;99.90;;;;;;5095306;28;20631;-90
2023/04/12 12:09:31;;;;;;;20.30;9.88;;;14.30;99.90;;;;;;5078073;28;20178;-91
2023/04/12 12:11:57;;;;;;;20.95;9.60;;;;;;;;;;5063213;28;20210;-91
2023/04/12 12:14:24;;;;;;;17.73;8.88;;;14.40;99.90;;;;;;5063418;28;20644;-90
2023/04/12 12:16:55;;;;;;;20.20;10.73;;;14.40;99.90;;;;;;5075120;28;20175;-90
2023/04/12 12:19:31;;;;;;;21.20;9.60;;;13.90;99.90;;;;;;5070306;28;20268;-87
2023/04/12 12:22:17;;;;;;;22.67;10.48;;;14.20;99.90;;;;;;5083305;28;20182;-89
2023/04/12 12:24:59;;;;;;;18.00;9.55;;;13.20;99.90;;;;;;5079881;28;20182;-89
2023/04/12 12:27:36;;;;;;;18.83;9.85;;;13.80;99.90;;;;;;5064782;28;20183;-90
2023/04/12 12:30:03;;;;;;;18.13;9.68;;;13.90;99.90;;;;;;5068171;28;20241;-90
2023/04/12 12:32:37;;;;;;;16.55;9.27;;;13.80;99.90;;;;;;5084734;28;20647;-91
2023/04/12 12:35:16;;;;;;;17.85;9.88;;;13.20;99.90;;;;;;5063488;28;20222;-90
2023/04/12 12:37:54;;;;;;;18.38;8.80;;;12.80;99.90;;;;;;5076638;28;20648;-91
2023/04/12 12:47:32;;;;;;;18.88;9.13;;;12.60;99.90;;;;;;5023107;28;20178;-89
2023/04/12 12:49:58;;;;;;;19.92;10.07;;;11.90;99.90;;;;;;5066563;28;20685;-88
2023/04/12 12:52:28;;;;;;;16.98;9.70;;;11.60;99.90;;;;;;5057309;28;20638;-89
2023/04/12 12:54:54;;;;;;;21.35;9.55;;;11.80;99.90;;;;;;5040220;28;20203;-87
2023/04/12 12:57:30;;;;;;;26.13;10.48;;;12.00;99.90;;;;;;5035571;28;20193;-91
2023/04/12 13:00:03;;;;;;;22.27;9.90;;;12.00;99.90;;;;;;5057789;28;20230;-90
2023/04/12 13:02:29;;;;;;;23.25;9.98;;;11.90;99.90;;;;;;5047920;28;20185;-92
2023/04/12 13:04:56;;;;;;;30.88;10.93;;;11.70;99.90;;;;;;5065120;28;20269;-90
2023/04/12 13:07:24;;;;;;;17.60;9.45;;;11.70;99.90;;;;;;5080084;28;20185;-90
2023/04/12 13:09:50;;;;;;;20.42;9.27;;;11.70;99.90;;;;;;5098595;28;20269;-91
2023/04/12 13:12:30;;;;;;;21.63;9.55;;;11.80;99.90;;;;;;5077144;28;20584;-90
2023/04/12 13:14:59;;;;;;;19.80;10.82;;;11.70;99.90;;;;;;5062961;28;20193;-88
2023/04/12 13:17:31;;;;;;;20.58;10.60;;;10.60;99.90;;;;;;5078191;28;20261;-89
2023/04/12 13:20:07;;;;;;;22.27;11.35;;;12.30;99.90;;;;;;5078108;28;20210;-89
2023/04/12 13:22:36;;;;;;;25.42;10.93;;;12.20;99.90;;;;;;5078799;28;20163;-88
2023/04/12 13:25:05;;;;;;;21.88;11.60;;;11.90;99.90;;;;;;5078841;28;20245;-90